createdAt,value
2022-10-21T00:02:11.891Z,14.65
2022-10-21T00:04:41.656Z,14.68
2022-10-21T00:07:11.705Z,14.70
2022-10-21T00:09:41.466Z,14.59
2022-10-21T00:12:12.080Z,14.78
2022-10-21T00:14:41.837Z,14.78
2022-10-21T00:17:11.565Z,14.82
2022-10-21T00:19:42.684Z,15.06
2022-10-21T00:22:12.765Z,15.03
2022-10-21T00:24:42.597Z,15.00
2022-10-21T00:27:12.640Z,14.96
2022-10-21T00:29:42.693Z,15.00
2022-10-21T00:32:12.441Z,14.87
2022-10-21T00:34:43.269Z,14.87
2022-10-21T00:37:13.895Z,14.98
2022-10-21T00:39:43.709Z,14.97
2022-10-21T00:42:19.225Z,14.84
2022-10-21T00:45:09.522Z,15.03
2022-10-21T00:47:51.215Z,15.16
2022-10-21T00:50:53.544Z,14.84
2022-10-21T00:53:24.238Z,14.83
2022-10-21T00:55:57.245Z,15.13
2022-10-21T00:58:29.541Z,14.95
2022-10-21T01:01:01.617Z,14.80
2022-10-21T01:03:32.896Z,14.96
2022-10-21T01:06:05.584Z,14.92
2022-10-21T01:08:36.183Z,14.95
2022-10-21T01:11:08.429Z,14.77
2022-10-21T01:13:50.037Z,14.74
2022-10-21T01:16:30.980Z,14.78
2022-10-21T01:19:15.359Z,14.87
2022-10-21T01:22:06.028Z,14.79
2022-10-21T01:24:50.644Z,14.78
2022-10-21T01:27:26.727Z,14.87
2022-10-21T01:30:10.726Z,14.72
2022-10-21T01:33:01.651Z,14.60
2022-10-21T01:35:54.770Z,14.49
2022-10-21T01:38:27.314Z,14.54
2022-10-21T01:41:17.918Z,14.68
2022-10-21T01:44:02.528Z,14.66
2022-10-21T01:46:38.171Z,14.63
2022-10-21T01:49:16.682Z,14.75
2022-10-21T01:51:47.072Z,14.67
2022-10-21T01:54:25.636Z,14.69
2022-10-21T01:56:57.334Z,14.58
2022-10-21T01:59:29.658Z,14.63
2022-10-21T02:02:02.818Z,14.59
2022-10-21T02:04:34.860Z,14.43
2022-10-21T02:07:05.213Z,14.39
2022-10-21T02:09:34.962Z,14.51
2022-10-21T02:12:07.420Z,14.29
2022-10-21T02:14:45.511Z,14.47
2022-10-21T02:17:18.931Z,14.45
2022-10-21T02:19:48.713Z,14.43
2022-10-21T02:22:21.583Z,14.42
2022-10-21T02:25:03.070Z,14.37
2022-10-21T02:27:33.072Z,14.26
2022-10-21T02:30:03.345Z,14.27
2022-10-21T02:32:41.871Z,14.14
2022-10-21T02:35:26.479Z,14.14
2022-10-21T02:38:04.450Z,14.14
2022-10-21T02:40:40.057Z,14.10
2022-10-21T02:43:15.637Z,14.09
2022-10-21T02:45:48.318Z,14.01
2022-10-21T02:48:18.210Z,14.30
2022-10-21T02:50:47.709Z,14.30
2022-10-21T02:53:17.843Z,14.14
2022-10-21T02:55:49.235Z,14.11
2022-10-21T02:58:19.014Z,14.16
2022-10-21T03:00:48.841Z,14.08
2022-10-21T03:03:18.763Z,14.13
2022-10-21T03:05:48.746Z,14.16
2022-10-21T03:08:18.473Z,14.25
2022-10-21T03:10:53.044Z,14.25
2022-10-21T03:13:22.622Z,14.08
2022-10-21T03:15:52.839Z,14.15
2022-10-21T03:18:22.605Z,14.27
2022-10-21T03:20:53.338Z,14.24
2022-10-21T03:23:23.096Z,14.26
2022-10-21T03:25:52.870Z,14.26
2022-10-21T03:28:22.660Z,14.29
2022-10-21T03:30:52.408Z,14.36
2022-10-21T03:33:22.188Z,14.27
2022-10-21T03:35:51.995Z,14.52
2022-10-21T03:38:21.827Z,14.37
2022-10-21T03:40:52.298Z,14.11
2022-10-21T03:43:22.065Z,14.06
2022-10-21T03:45:51.835Z,14.13
2022-10-21T03:48:21.587Z,14.13
2022-10-21T03:50:52.105Z,14.17
2022-10-21T03:53:38.127Z,14.18
2022-10-21T03:55:56.681Z,14.02
2022-10-21T03:58:25.522Z,13.96
2022-10-21T04:00:56.206Z,13.87
2022-10-21T04:03:25.959Z,13.87
2022-10-21T04:05:55.786Z,13.84
2022-10-21T04:08:25.520Z,13.88
2022-10-21T04:10:56.816Z,13.98
2022-10-21T04:13:26.638Z,13.67
2022-10-21T04:15:58.929Z,13.81
2022-10-21T04:18:28.690Z,13.81
2022-10-21T04:20:58.440Z,13.82
2022-10-21T04:23:28.212Z,13.86
2022-10-21T04:25:57.998Z,13.73
2022-10-21T04:28:27.519Z,13.90
2022-10-21T04:30:57.279Z,13.86
2022-10-21T04:33:27.626Z,13.57
2022-10-21T04:35:59.082Z,13.57
2022-10-21T04:38:30.514Z,13.77
2022-10-21T04:41:02.855Z,13.79
2022-10-21T04:43:32.924Z,13.85
2022-10-21T04:46:02.693Z,13.71
2022-10-21T04:48:32.480Z,13.62
2022-10-21T04:51:02.239Z,13.78
2022-10-21T04:53:31.988Z,13.74
2022-10-21T04:56:01.819Z,13.59
2022-10-21T04:58:31.655Z,13.74
2022-10-21T05:01:01.509Z,13.73
2022-10-21T05:03:31.979Z,13.73
2022-10-21T05:06:01.702Z,13.75
2022-10-21T05:08:31.551Z,13.80
2022-10-21T05:11:02.349Z,13.72
2022-10-21T05:13:33.439Z,13.65
2022-10-21T05:16:04.737Z,13.52
2022-10-21T05:18:34.474Z,13.64
2022-10-21T05:21:04.503Z,13.72
2022-10-21T05:23:34.550Z,13.78
2022-10-21T05:26:07.056Z,13.54
2022-10-21T05:28:37.547Z,13.54
2022-10-21T05:31:07.303Z,13.56
2022-10-21T05:33:37.121Z,13.56
2022-10-21T05:36:08.591Z,13.63
2022-10-21T05:38:38.343Z,13.63
2022-10-21T05:41:08.107Z,13.66
2022-10-21T05:43:38.805Z,13.63
2022-10-21T05:48:39.864Z,13.53
2022-10-21T05:51:09.601Z,13.61
2022-10-21T05:53:39.811Z,13.72
2022-10-21T05:56:12.134Z,13.72
2022-10-21T05:58:41.867Z,13.72
2022-10-21T06:01:12.297Z,13.73
2022-10-21T06:03:42.094Z,13.60
2022-10-21T06:06:11.757Z,13.45
2022-10-21T06:08:41.399Z,13.49
2022-10-21T06:11:13.926Z,13.54
2022-10-21T06:13:44.532Z,13.56
2022-10-21T06:16:15.127Z,13.60
2022-10-21T06:18:45.119Z,13.61
2022-10-21T06:21:14.884Z,13.60
2022-10-21T06:23:44.774Z,13.61
2022-10-21T06:26:16.773Z,13.75
2022-10-21T06:28:46.497Z,13.65
2022-10-21T06:31:18.560Z,13.75
2022-10-21T06:33:48.790Z,13.56
2022-10-21T06:36:18.747Z,13.56
2022-10-21T06:38:48.578Z,13.78
2022-10-21T06:41:18.872Z,13.64
2022-10-21T06:43:48.612Z,13.58
2022-10-21T06:46:18.719Z,13.58
2022-10-21T06:48:48.249Z,13.89
2022-10-21T06:51:21.036Z,13.85
2022-10-21T06:53:56.543Z,13.88
2022-10-21T06:56:27.129Z,13.67
2022-10-21T06:58:58.989Z,13.83
2022-10-21T07:01:48.326Z,13.91
2022-10-21T07:04:10.796Z,13.85
2022-10-21T07:06:40.608Z,13.85
2022-10-21T07:09:10.933Z,13.96
2022-10-21T07:11:40.815Z,13.89
2022-10-21T07:14:13.264Z,14.05
2022-10-21T07:16:43.013Z,14.05
2022-10-21T07:19:12.753Z,14.10
2022-10-21T07:21:42.613Z,14.10
2022-10-21T07:24:12.197Z,14.11
2022-10-21T07:26:42.094Z,14.17
2022-10-21T07:29:11.875Z,14.17
2022-10-21T07:31:41.808Z,14.28
2022-10-21T07:34:13.375Z,14.32
2022-10-21T07:36:47.685Z,14.34
2022-10-21T07:39:19.005Z,14.49
2022-10-21T07:41:51.436Z,14.48
2022-10-21T07:44:22.717Z,14.24
2022-10-21T07:46:54.121Z,14.39
2022-10-21T07:49:25.537Z,14.64
2022-10-21T07:51:55.296Z,14.65
2022-10-21T07:54:25.162Z,14.74
2022-10-21T07:56:54.911Z,14.82
2022-10-21T07:59:25.352Z,14.91
2022-10-21T08:01:55.205Z,14.98
2022-10-21T08:04:27.414Z,14.98
2022-10-21T08:06:57.440Z,15.26
2022-10-21T08:09:27.381Z,15.29
2022-10-21T08:11:57.964Z,15.03
2022-10-21T08:14:27.683Z,15.33
2022-10-21T08:16:57.528Z,15.43
2022-10-21T08:19:28.919Z,15.36
2022-10-21T08:22:00.793Z,15.43
2022-10-21T08:24:30.542Z,15.43
2022-10-21T08:27:00.445Z,15.53
2022-10-21T08:29:30.566Z,15.60
2022-10-21T08:32:00.421Z,15.67
2022-10-21T08:34:30.168Z,15.49
2022-10-21T08:36:59.920Z,15.63
2022-10-21T08:39:29.752Z,15.56
2022-10-21T08:42:17.038Z,15.63
2022-10-21T08:44:52.422Z,15.63
2022-10-21T08:47:34.429Z,15.84
2022-10-21T08:50:19.047Z,15.91
2022-10-21T08:52:51.847Z,15.93
2022-10-21T08:55:33.327Z,15.90
2022-10-21T08:58:04.928Z,15.67
2022-10-21T09:00:40.264Z,15.51
2022-10-21T09:03:16.115Z,15.76
2022-10-21T09:05:49.140Z,15.86
2022-10-21T09:08:27.508Z,15.79
2022-10-21T09:11:05.734Z,15.79
2022-10-21T09:14:02.244Z,15.61
2022-10-21T09:16:52.483Z,15.70
2022-10-21T09:19:43.051Z,15.86
2022-10-21T09:22:39.406Z,15.93
2022-10-21T09:25:21.315Z,15.80
2022-10-21T09:27:56.747Z,15.87
2022-10-21T09:30:24.215Z,15.90
2022-10-21T09:32:59.484Z,15.93
2022-10-21T09:35:43.591Z,15.83
2022-10-21T09:38:19.480Z,15.85
2022-10-21T09:40:51.916Z,16.06
2022-10-21T09:43:24.715Z,15.97
2022-10-21T09:45:55.229Z,16.02
2022-10-21T09:49:06.927Z,16.07
2022-10-21T09:51:21.449Z,16.29
2022-10-21T09:53:57.063Z,16.31
2022-10-21T09:56:44.140Z,16.35
2022-10-21T09:59:21.226Z,16.61
2022-10-21T10:01:51.331Z,16.66
2022-10-21T10:04:26.828Z,16.60
2022-10-21T10:06:58.060Z,16.60
2022-10-21T10:09:37.422Z,16.80
2022-10-21T10:12:13.860Z,16.86
2022-10-21T10:14:46.369Z,17.14
2022-10-21T10:17:22.118Z,17.30
2022-10-21T10:20:14.842Z,17.37
2022-10-21T10:22:47.786Z,17.44
2022-10-21T10:25:24.953Z,17.60
2022-10-21T10:28:06.835Z,17.82
2022-10-21T10:30:45.234Z,17.87
2022-10-21T10:33:23.438Z,18.04
2022-10-21T10:35:58.693Z,17.98
2022-10-21T10:38:42.924Z,18.09
2022-10-21T10:41:15.408Z,18.29
2022-10-21T10:43:56.793Z,18.29
2022-10-21T10:46:32.027Z,18.10
2022-10-21T10:49:16.420Z,18.06
2022-10-21T10:51:50.923Z,18.06
2022-10-21T10:54:24.074Z,18.20
2022-10-21T10:56:58.959Z,18.29
2022-10-21T10:59:31.833Z,18.14
2022-10-21T11:02:11.404Z,18.30
2022-10-21T11:05:18.481Z,18.24
2022-10-21T11:07:52.994Z,18.27
2022-10-21T11:10:46.537Z,18.13
2022-10-21T11:13:19.347Z,18.30
2022-10-21T11:16:12.222Z,18.38
2022-10-21T11:19:11.979Z,18.54
2022-10-21T11:21:53.443Z,18.82
2022-10-21T11:24:25.953Z,18.86
2022-10-21T11:27:26.697Z,19.31
2022-10-21T11:30:05.249Z,19.34
2022-10-21T11:33:12.406Z,19.61
2022-10-21T11:35:57.809Z,19.65
2022-10-21T11:38:34.847Z,19.79
2022-10-21T11:41:27.213Z,19.55
2022-10-21T11:44:12.458Z,20.04
2022-10-21T11:47:05.749Z,20.08
2022-10-21T11:49:47.518Z,20.26
2022-10-21T11:52:45.036Z,20.29
2022-10-21T11:55:35.205Z,20.17
2022-10-21T11:58:12.053Z,19.83
2022-10-21T12:00:56.802Z,19.60
2022-10-21T12:03:29.587Z,19.72
2022-10-21T12:06:10.055Z,19.84
2022-10-21T12:08:57.514Z,20.28
2022-10-21T12:14:30.859Z,20.56
2022-10-21T12:17:01.056Z,20.76
2022-10-21T12:19:31.037Z,20.92
2022-10-21T12:22:01.417Z,20.92
2022-10-21T12:24:39.999Z,21.19
2022-10-21T12:27:18.724Z,20.97
2022-10-21T12:30:08.498Z,20.94
2022-10-21T12:33:02.349Z,20.79
2022-10-21T12:35:51.545Z,21.26
2022-10-21T12:38:44.993Z,21.61
2022-10-21T12:41:29.917Z,21.54
2022-10-21T12:44:05.359Z,20.74
2022-10-21T12:46:49.604Z,20.74
2022-10-21T12:49:32.474Z,20.83
2022-10-21T12:52:11.335Z,20.54
2022-10-21T12:54:49.730Z,20.75
2022-10-21T12:57:25.525Z,21.07
2022-10-21T13:00:14.139Z,21.07
2022-10-21T13:03:06.235Z,21.15
2022-10-21T13:05:41.752Z,20.91
2022-10-21T13:08:24.175Z,21.02
2022-10-21T13:11:08.695Z,20.67
2022-10-21T13:13:43.651Z,20.75
2022-10-21T13:16:25.109Z,20.63
2022-10-21T13:18:56.651Z,20.75
2022-10-21T13:21:32.121Z,20.88
2022-10-21T13:24:13.759Z,21.07
2022-10-21T13:27:06.427Z,21.07
2022-10-21T13:29:45.172Z,21.04
2022-10-21T13:32:21.778Z,21.44
2022-10-21T13:35:09.390Z,21.83
2022-10-21T13:37:45.284Z,22.20
2022-10-21T13:40:18.698Z,22.49
2022-10-21T13:42:51.559Z,22.11
2022-10-21T13:45:27.025Z,21.86
2022-10-21T13:48:05.466Z,21.57
2022-10-21T13:50:40.607Z,21.70
2022-10-21T13:53:34.965Z,21.37
2022-10-21T13:56:09.454Z,21.20
2022-10-21T13:58:40.578Z,21.39
2022-10-21T14:01:13.663Z,21.08
2022-10-21T14:03:43.933Z,21.21
2022-10-21T14:06:26.748Z,21.12
2022-10-21T14:08:56.850Z,21.16
2022-10-21T14:11:33.435Z,21.12
2022-10-21T14:14:04.307Z,20.94
2022-10-21T14:16:36.841Z,21.24
2022-10-21T14:19:09.605Z,21.43
2022-10-21T14:21:41.928Z,21.76
2022-10-21T14:24:36.150Z,22.04
2022-10-21T14:27:07.116Z,22.38
2022-10-21T14:29:37.488Z,22.48
2022-10-21T14:32:08.869Z,22.08
2022-10-21T14:34:41.722Z,21.99
2022-10-21T14:37:14.501Z,21.95
2022-10-21T14:39:44.239Z,22.23
2022-10-21T14:42:16.830Z,22.12
2022-10-21T14:44:48.147Z,22.19
2022-10-21T14:47:26.355Z,22.20
2022-10-21T14:50:01.063Z,22.13
2022-10-21T14:52:37.109Z,21.96
2022-10-21T14:55:11.215Z,21.86
2022-10-21T14:57:49.813Z,21.73
2022-10-21T15:00:34.557Z,21.86
2022-10-21T15:03:04.455Z,21.78
2022-10-21T15:05:47.873Z,21.70
2022-10-21T15:08:29.404Z,21.48
2022-10-21T15:11:12.075Z,21.48
2022-10-21T15:13:44.858Z,21.09
2022-10-21T15:16:22.166Z,21.09
2022-10-21T15:18:53.888Z,21.20
2022-10-21T15:21:38.262Z,21.29
2022-10-21T15:24:09.990Z,21.30
2022-10-21T15:26:42.066Z,21.05
2022-10-21T15:29:23.979Z,21.11
2022-10-21T15:31:54.019Z,21.03
2022-10-21T15:34:23.532Z,20.76
2022-10-21T15:36:53.506Z,20.61
2022-10-21T15:39:23.315Z,20.48
2022-10-21T15:41:55.172Z,20.33
2022-10-21T15:44:27.671Z,20.32
2022-10-21T15:47:00.705Z,20.41
2022-10-21T15:49:37.819Z,20.19
2022-10-21T15:52:10.864Z,20.05
2022-10-21T15:54:40.694Z,20.03
2022-10-21T15:57:21.978Z,20.05
2022-10-21T15:59:51.722Z,19.87
2022-10-21T16:02:21.194Z,19.69
2022-10-21T16:04:52.741Z,19.82
2022-10-21T16:07:25.335Z,19.60
2022-10-21T16:09:55.220Z,19.68
2022-10-21T16:12:24.854Z,19.67
2022-10-21T16:14:54.976Z,19.63
2022-10-21T16:17:26.339Z,19.54
2022-10-21T16:19:56.098Z,19.54
2022-10-21T16:22:25.876Z,19.39
2022-10-21T16:24:55.696Z,19.22
2022-10-21T16:27:43.437Z,19.05
2022-10-21T16:29:57.481Z,19.05
2022-10-21T16:32:27.381Z,19.00
2022-10-21T16:34:57.128Z,18.91
2022-10-21T16:37:28.564Z,18.88
2022-10-21T16:39:58.381Z,18.80
2022-10-21T16:42:28.169Z,18.74
2022-10-21T16:44:57.957Z,18.70
2022-10-21T16:47:27.710Z,18.67
2022-10-21T16:50:00.141Z,18.65
2022-10-21T16:52:29.899Z,18.45
2022-10-21T16:54:59.930Z,18.31
2022-10-21T16:57:29.679Z,18.31
2022-10-21T16:59:59.502Z,18.28
2022-10-21T17:02:29.610Z,18.14
2022-10-21T17:04:59.373Z,18.11
2022-10-21T17:07:30.746Z,18.01
2022-10-21T17:10:01.912Z,17.90
2022-10-21T17:12:33.216Z,17.86
2022-10-21T17:15:03.661Z,17.94
2022-10-21T17:17:33.754Z,17.96
2022-10-21T17:20:03.738Z,17.85
2022-10-21T17:22:33.249Z,17.87
2022-10-21T17:25:03.052Z,17.78
2022-10-21T17:27:32.534Z,17.85
2022-10-21T17:30:02.320Z,17.78
2022-10-21T17:32:32.185Z,17.71
2022-10-21T17:35:02.053Z,17.57
2022-10-21T17:37:32.128Z,17.49
2022-10-21T17:40:01.869Z,17.49
2022-10-21T17:42:31.912Z,17.53
2022-10-21T17:45:03.797Z,17.35
2022-10-21T17:47:33.736Z,17.35
2022-10-21T17:50:04.050Z,17.38
2022-10-21T17:52:33.893Z,17.40
2022-10-21T17:55:04.423Z,17.39
2022-10-21T17:57:34.614Z,17.43
2022-10-21T18:00:06.434Z,17.17
2022-10-21T18:02:38.354Z,17.27
2022-10-21T18:05:10.568Z,17.20
2022-10-21T18:07:41.033Z,17.06
2022-10-21T18:10:10.929Z,17.06
2022-10-21T18:12:40.950Z,17.06
2022-10-21T18:15:11.052Z,17.00
2022-10-21T18:17:41.398Z,16.80
2022-10-21T18:20:13.786Z,16.85
2022-10-21T18:22:43.542Z,16.93
2022-10-21T18:25:13.108Z,16.88
2022-10-21T18:30:12.932Z,17.08
2022-10-21T18:32:43.018Z,17.03
2022-10-21T18:35:12.689Z,16.97
2022-10-21T18:37:43.409Z,17.01
2022-10-21T18:40:15.456Z,16.94
2022-10-21T18:42:45.923Z,16.93
2022-10-21T18:45:15.627Z,16.80
2022-10-21T18:47:47.041Z,16.70
2022-10-21T18:50:17.637Z,16.88
2022-10-21T18:52:47.240Z,16.91
2022-10-21T18:55:16.998Z,16.69
2022-10-21T18:57:46.795Z,16.80
2022-10-21T19:00:16.587Z,16.72
2022-10-21T19:02:46.339Z,16.75
2022-10-21T19:05:15.855Z,16.70
2022-10-21T19:07:45.844Z,16.53
2022-10-21T19:10:15.633Z,16.60
2022-10-21T19:12:45.669Z,16.57
2022-10-21T19:15:15.371Z,16.65
2022-10-21T19:17:45.144Z,16.51
2022-10-21T19:20:17.407Z,16.55
2022-10-21T19:22:47.702Z,16.53
2022-10-21T19:25:17.963Z,16.38
2022-10-21T19:27:47.771Z,16.54
2022-10-21T19:30:18.806Z,16.45
2022-10-21T19:32:48.825Z,16.44
2022-10-21T19:35:18.997Z,16.38
2022-10-21T19:37:48.718Z,16.57
2022-10-21T19:40:18.254Z,16.52
2022-10-21T19:42:48.162Z,16.36
2022-10-21T19:45:18.109Z,16.56
2022-10-21T19:47:47.656Z,16.61
2022-10-21T19:50:18.081Z,16.65
2022-10-21T19:52:47.826Z,16.53
2022-10-21T19:55:19.062Z,16.57
2022-10-21T19:57:49.091Z,16.57
2022-10-21T20:00:18.609Z,16.60
2022-10-21T20:02:48.647Z,16.55
2022-10-21T20:05:18.320Z,16.59
2022-10-21T20:07:48.134Z,16.46
2022-10-21T20:10:19.587Z,16.42
2022-10-21T20:12:49.057Z,16.33
2022-10-21T20:15:19.030Z,16.29
2022-10-21T20:17:48.979Z,16.50
2022-10-21T20:20:18.683Z,16.34
2022-10-21T20:22:48.749Z,16.27
2022-10-21T20:25:18.985Z,16.19
2022-10-21T20:27:49.010Z,16.21
2022-10-21T20:30:19.148Z,16.08
2022-10-21T20:32:50.823Z,16.32
2022-10-21T20:35:21.152Z,16.15
2022-10-21T20:37:51.217Z,16.17
2022-10-21T20:40:20.921Z,16.14
2022-10-21T20:42:51.004Z,16.09
2022-10-21T20:45:21.173Z,16.09
2022-10-21T20:47:50.677Z,16.11
2022-10-21T20:50:20.110Z,16.02
2022-10-21T20:52:50.225Z,15.97
2022-10-21T20:55:20.121Z,15.88
2022-10-21T20:57:50.152Z,15.97
2022-10-21T21:00:19.942Z,15.97
2022-10-21T21:02:49.756Z,15.91
2022-10-21T21:05:19.851Z,15.94
2022-10-21T21:07:49.608Z,15.88
2022-10-21T21:10:19.344Z,15.87
2022-10-21T21:12:49.117Z,15.82
2022-10-21T21:15:18.890Z,15.67
2022-10-21T21:17:51.922Z,15.80
2022-10-21T21:20:21.349Z,15.87
2022-10-21T21:22:51.113Z,15.84
2022-10-21T21:25:20.855Z,15.72
2022-10-21T21:27:50.888Z,15.77
2022-10-21T21:30:20.995Z,15.81
2022-10-21T21:32:50.717Z,15.81
2022-10-21T21:35:20.457Z,15.60
2022-10-21T21:37:50.262Z,15.69
2022-10-21T21:40:20.301Z,15.75
2022-10-21T21:42:50.032Z,15.62
2022-10-21T21:45:19.487Z,15.82
2022-10-21T21:47:49.243Z,15.81
2022-10-21T21:50:19.334Z,15.75
2022-10-21T21:52:49.361Z,15.60
2022-10-21T21:55:19.468Z,15.61
2022-10-21T21:57:49.201Z,15.66
2022-10-21T22:00:18.912Z,15.67
2022-10-21T22:02:48.662Z,15.61
2022-10-21T22:05:22.470Z,15.54
2022-10-21T22:07:51.365Z,15.57
2022-10-21T22:10:21.111Z,15.57
2022-10-21T22:12:51.167Z,15.48
2022-10-21T22:15:43.362Z,15.54
2022-10-21T22:17:53.778Z,15.41
2022-10-21T22:20:23.653Z,15.48
2022-10-21T22:22:53.443Z,15.41
2022-10-21T22:25:22.894Z,15.33
2022-10-21T22:27:52.936Z,15.28
2022-10-21T22:30:22.710Z,15.33
2022-10-21T22:32:52.754Z,15.27
2022-10-21T22:35:22.190Z,15.33
2022-10-21T22:37:52.262Z,15.24
2022-10-21T22:40:21.860Z,15.32
2022-10-21T22:42:51.665Z,15.17
2022-10-21T22:45:21.394Z,15.29
2022-10-21T22:47:51.438Z,15.23
2022-10-21T22:50:21.526Z,15.18
2022-10-21T22:52:51.278Z,15.00
2022-10-21T22:55:21.112Z,15.08
2022-10-21T22:57:50.922Z,15.05
2022-10-21T23:00:20.657Z,15.11
2022-10-21T23:02:50.505Z,15.18
2022-10-21T23:05:19.947Z,14.96
2022-10-21T23:07:49.901Z,14.90
2022-10-21T23:10:23.316Z,14.99
2022-10-21T23:12:53.080Z,15.03
2022-10-21T23:15:22.768Z,15.01
2022-10-21T23:17:52.540Z,14.94
2022-10-21T23:20:22.259Z,14.86
2022-10-21T23:22:52.010Z,14.84
2022-10-21T23:25:22.897Z,14.74
2022-10-21T23:27:52.712Z,14.83
2022-10-21T23:30:22.474Z,14.71
2022-10-21T23:32:52.310Z,14.61
2022-10-21T23:35:23.677Z,14.67
2022-10-21T23:37:53.427Z,14.64
2022-10-21T23:40:23.190Z,14.72
2022-10-21T23:42:53.229Z,14.67
2022-10-21T23:45:22.962Z,14.61
2022-10-21T23:47:53.098Z,14.61
2022-10-21T23:50:23.067Z,14.50
2022-10-21T23:52:52.522Z,14.56
2022-10-21T23:55:22.026Z,14.56
2022-10-21T23:57:51.822Z,14.61
